<?xml version="1.0" encoding="UTF-8" standalone="no" ?>
<gpx xmlns="http://www.topografix.com/GPX/1/1" xmlns:xsi="http://www.w3.org/2001/XMLSchema-instance" xsi:schemaLocation="http://www.topografix.com/GPX/1/1 http://www.topografix.com/GPX/1/1/gpx.xsd" version="1.1" creator="VisuGPX - https://www.visugpx.com">
  <metadata>
    <name>Sortie Tranquille Anse 500mD+</name>
  </metadata>
  <trk>
    <name><![CDATA[Sortie Tranquille Anse 500mD+_1]]></name>
    <trkseg>
      <trkpt lat="45.98028" lon="4.72563">
        <ele>187.2</ele>
        <time>1989-12-31T00:00:00Z</time>
      </trkpt>
      <trkpt lat="45.98031" lon="4.72673">
        <ele>185.4</ele>
        <time>1989-12-31T00:00:15Z</time>
      </trkpt>
      <trkpt lat="45.98093" lon="4.7269">
        <ele>185.4</ele>
        <time>1989-12-31T00:00:29Z</time>
      </trkpt>
      <trkpt lat="45.98095" lon="4.72861">
        <ele>182.6</ele>
        <time>1989-12-31T00:00:53Z</time>
      </trkpt>
      <trkpt lat="45.97942" lon="4.72856">
        <ele>180.4</ele>
        <time>1989-12-31T00:01:25Z</time>
      </trkpt>
      <trkpt lat="45.97919" lon="4.72857">
        <ele>180.4</ele>
        <time>1989-12-31T00:01:30Z</time>
      </trkpt>
      <trkpt lat="45.97905" lon="4.73035">
        <ele>176.2</ele>
        <time>1989-12-31T00:01:56Z</time>
      </trkpt>
      <trkpt lat="45.97713" lon="4.72938">
        <ele>174.4</ele>
        <time>1989-12-31T00:02:38Z</time>
      </trkpt>
      <trkpt lat="45.97549" lon="4.72875">
        <ele>173.6</ele>
        <time>1989-12-31T00:03:13Z</time>
      </trkpt>
      <trkpt lat="45.97378" lon="4.72816">
        <ele>173.2</ele>
        <time>1989-12-31T00:03:49Z</time>
      </trkpt>
      <trkpt lat="45.97292" lon="4.7275">
        <ele>170.8</ele>
        <time>1989-12-31T00:04:10Z</time>
      </trkpt>
      <trkpt lat="45.97262" lon="4.72703">
        <ele>171</ele>
        <time>1989-12-31T00:04:19Z</time>
      </trkpt>
      <trkpt lat="45.97085" lon="4.72665">
        <ele>172</ele>
        <time>1989-12-31T00:04:56Z</time>
      </trkpt>
      <trkpt lat="45.97058" lon="4.72659">
        <ele>172</ele>
        <time>1989-12-31T00:05:02Z</time>
      </trkpt>
      <trkpt lat="45.97045" lon="4.72871">
        <ele>167.4</ele>
        <time>1989-12-31T00:05:32Z</time>
      </trkpt>
      <trkpt lat="45.96981" lon="4.72843">
        <ele>167.4</ele>
        <time>1989-12-31T00:05:46Z</time>
      </trkpt>
      <trkpt lat="45.96798" lon="4.72683">
        <ele>167.8</ele>
        <time>1989-12-31T00:06:31Z</time>
      </trkpt>
      <trkpt lat="45.96676" lon="4.72582">
        <ele>168.6</ele>
        <time>1989-12-31T00:07:00Z</time>
      </trkpt>
      <trkpt lat="45.96662" lon="4.72647">
        <ele>168.8</ele>
        <time>1989-12-31T00:07:10Z</time>
      </trkpt>
      <trkpt lat="45.96365" lon="4.72395">
        <ele>167.6</ele>
        <time>1989-12-31T00:08:21Z</time>
      </trkpt>
      <trkpt lat="45.9621" lon="4.72254">
        <ele>168.6</ele>
        <time>1989-12-31T00:09:00Z</time>
      </trkpt>
      <trkpt lat="45.96197" lon="4.72276">
        <ele>168.6</ele>
        <time>1989-12-31T00:09:04Z</time>
      </trkpt>
      <trkpt lat="45.96168" lon="4.7241">
        <ele>168.8</ele>
        <time>1989-12-31T00:09:24Z</time>
      </trkpt>
      <trkpt lat="45.96038" lon="4.72314">
        <ele>172</ele>
        <time>1989-12-31T00:09:54Z</time>
      </trkpt>
      <trkpt lat="45.95934" lon="4.72562">
        <ele>174.2</ele>
        <time>1989-12-31T00:10:36Z</time>
      </trkpt>
      <trkpt lat="45.95914" lon="4.72559">
        <ele>173.2</ele>
        <time>1989-12-31T00:10:40Z</time>
      </trkpt>
      <trkpt lat="45.95854" lon="4.72509">
        <ele>173.8</ele>
        <time>1989-12-31T00:10:55Z</time>
      </trkpt>
      <trkpt lat="45.95707" lon="4.72374">
        <ele>169.8</ele>
        <time>1989-12-31T00:11:31Z</time>
      </trkpt>
      <trkpt lat="45.95614" lon="4.72296">
        <ele>172</ele>
        <time>1989-12-31T00:11:53Z</time>
      </trkpt>
      <trkpt lat="45.95558" lon="4.7228">
        <ele>171</ele>
        <time>1989-12-31T00:12:05Z</time>
      </trkpt>
      <trkpt lat="45.955" lon="4.7228">
        <ele>170.2</ele>
        <time>1989-12-31T00:12:17Z</time>
      </trkpt>
      <trkpt lat="45.9535" lon="4.72294">
        <ele>171</ele>
        <time>1989-12-31T00:12:48Z</time>
      </trkpt>
      <trkpt lat="45.95159" lon="4.72396">
        <ele>168</ele>
        <time>1989-12-31T00:13:31Z</time>
      </trkpt>
      <trkpt lat="45.9512" lon="4.72397">
        <ele>169</ele>
        <time>1989-12-31T00:13:39Z</time>
      </trkpt>
      <trkpt lat="45.95059" lon="4.72376">
        <ele>169.6</ele>
        <time>1989-12-31T00:13:52Z</time>
      </trkpt>
      <trkpt lat="45.95045" lon="4.72376">
        <ele>169.6</ele>
        <time>1989-12-31T00:13:54Z</time>
      </trkpt>
      <trkpt lat="45.95029" lon="4.72438">
        <ele>168.8</ele>
        <time>1989-12-31T00:14:04Z</time>
      </trkpt>
      <trkpt lat="45.94986" lon="4.72526">
        <ele>168.8</ele>
        <time>1989-12-31T00:14:20Z</time>
      </trkpt>
      <trkpt lat="45.94977" lon="4.72574">
        <ele>169</ele>
        <time>1989-12-31T00:14:27Z</time>
      </trkpt>
      <trkpt lat="45.94983" lon="4.72606">
        <ele>170.2</ele>
        <time>1989-12-31T00:14:32Z</time>
      </trkpt>
      <trkpt lat="45.95067" lon="4.72628">
        <ele>167.8</ele>
        <time>1989-12-31T00:14:49Z</time>
      </trkpt>
      <trkpt lat="45.9507" lon="4.7267">
        <ele>168.2</ele>
        <time>1989-12-31T00:14:55Z</time>
      </trkpt>
      <trkpt lat="45.95029" lon="4.72656">
        <ele>169</ele>
        <time>1989-12-31T00:15:04Z</time>
      </trkpt>
      <trkpt lat="45.9501" lon="4.72706">
        <ele>170.2</ele>
        <time>1989-12-31T00:15:12Z</time>
      </trkpt>
      <trkpt lat="45.94908" lon="4.72622">
        <ele>172.4</ele>
        <time>1989-12-31T00:15:37Z</time>
      </trkpt>
      <trkpt lat="45.94749" lon="4.72547">
        <ele>171.6</ele>
        <time>1989-12-31T00:16:11Z</time>
      </trkpt>
      <trkpt lat="45.94644" lon="4.72514">
        <ele>170.8</ele>
        <time>1989-12-31T00:16:34Z</time>
      </trkpt>
      <trkpt lat="45.94495" lon="4.72496">
        <ele>173</ele>
        <time>1989-12-31T00:17:05Z</time>
      </trkpt>
      <trkpt lat="45.94434" lon="4.72525">
        <ele>173.4</ele>
        <time>1989-12-31T00:17:18Z</time>
      </trkpt>
      <trkpt lat="45.94421" lon="4.72549">
        <ele>173.2</ele>
        <time>1989-12-31T00:17:22Z</time>
      </trkpt>
      <trkpt lat="45.94432" lon="4.72597">
        <ele>173.2</ele>
        <time>1989-12-31T00:17:30Z</time>
      </trkpt>
      <trkpt lat="45.94411" lon="4.72608">
        <ele>173.4</ele>
        <time>1989-12-31T00:17:34Z</time>
      </trkpt>
      <trkpt lat="45.94435" lon="4.72737">
        <ele>171</ele>
        <time>1989-12-31T00:17:54Z</time>
      </trkpt>
      <trkpt lat="45.94423" lon="4.72783">
        <ele>168</ele>
        <time>1989-12-31T00:18:01Z</time>
      </trkpt>
      <trkpt lat="45.94398" lon="4.72779">
        <ele>168.8</ele>
        <time>1989-12-31T00:18:06Z</time>
      </trkpt>
      <trkpt lat="45.94378" lon="4.72779">
        <ele>168.6</ele>
        <time>1989-12-31T00:18:10Z</time>
      </trkpt>
      <trkpt lat="45.94319" lon="4.72821">
        <ele>168</ele>
        <time>1989-12-31T00:18:24Z</time>
      </trkpt>
      <trkpt lat="45.9422" lon="4.72877">
        <ele>168.8</ele>
        <time>1989-12-31T00:18:46Z</time>
      </trkpt>
      <trkpt lat="45.94147" lon="4.72803">
        <ele>170.4</ele>
        <time>1989-12-31T00:19:04Z</time>
      </trkpt>
      <trkpt lat="45.93976" lon="4.72642">
        <ele>173.4</ele>
        <time>1989-12-31T00:19:47Z</time>
      </trkpt>
      <trkpt lat="45.93852" lon="4.72529">
        <ele>173.4</ele>
        <time>1989-12-31T00:20:17Z</time>
      </trkpt>
      <trkpt lat="45.9378" lon="4.72464">
        <ele>171.6</ele>
        <time>1989-12-31T00:20:35Z</time>
      </trkpt>
      <trkpt lat="45.93652" lon="4.72332">
        <ele>171.6</ele>
        <time>1989-12-31T00:21:08Z</time>
      </trkpt>
      <trkpt lat="45.93625" lon="4.72292">
        <ele>172.2</ele>
        <time>1989-12-31T00:21:16Z</time>
      </trkpt>
      <trkpt lat="45.93553" lon="4.7222">
        <ele>172.6</ele>
        <time>1989-12-31T00:21:34Z</time>
      </trkpt>
      <trkpt lat="45.93448" lon="4.72179">
        <ele>174.4</ele>
        <time>1989-12-31T00:21:56Z</time>
      </trkpt>
      <trkpt lat="45.93379" lon="4.72198">
        <ele>176.6</ele>
        <time>1989-12-31T00:22:11Z</time>
      </trkpt>
      <trkpt lat="45.93293" lon="4.72218">
        <ele>174.8</ele>
        <time>1989-12-31T00:22:29Z</time>
      </trkpt>
      <trkpt lat="45.93235" lon="4.72211">
        <ele>171.2</ele>
        <time>1989-12-31T00:22:41Z</time>
      </trkpt>
      <trkpt lat="45.9316" lon="4.72222">
        <ele>170</ele>
        <time>1989-12-31T00:22:57Z</time>
      </trkpt>
      <trkpt lat="45.93175" lon="4.72035">
        <ele>169.8</ele>
        <time>1989-12-31T00:23:24Z</time>
      </trkpt>
      <trkpt lat="45.93018" lon="4.7198">
        <ele>169</ele>
        <time>1989-12-31T00:23:58Z</time>
      </trkpt>
      <trkpt lat="45.92899" lon="4.71938">
        <ele>170</ele>
        <time>1989-12-31T00:24:23Z</time>
      </trkpt>
      <trkpt lat="45.9278" lon="4.71859">
        <ele>171.8</ele>
        <time>1989-12-31T00:24:50Z</time>
      </trkpt>
      <trkpt lat="45.92703" lon="4.71814">
        <ele>173.4</ele>
        <time>1989-12-31T00:25:07Z</time>
      </trkpt>
      <trkpt lat="45.92708" lon="4.71709">
        <ele>174</ele>
        <time>1989-12-31T00:25:23Z</time>
      </trkpt>
      <trkpt lat="45.92738" lon="4.71654">
        <ele>172</ele>
        <time>1989-12-31T00:25:33Z</time>
      </trkpt>
      <trkpt lat="45.92794" lon="4.71565">
        <ele>172.4</ele>
        <time>1989-12-31T00:25:50Z</time>
      </trkpt>
      <trkpt lat="45.92846" lon="4.71399">
        <ele>187.2</ele>
        <time>1989-12-31T00:26:16Z</time>
      </trkpt>
      <trkpt lat="45.9283" lon="4.71371">
        <ele>187</ele>
        <time>1989-12-31T00:26:22Z</time>
      </trkpt>
      <trkpt lat="45.92823" lon="4.71307">
        <ele>189.4</ele>
        <time>1989-12-31T00:26:31Z</time>
      </trkpt>
      <trkpt lat="45.92729" lon="4.71275">
        <ele>187.8</ele>
        <time>1989-12-31T00:26:51Z</time>
      </trkpt>
      <trkpt lat="45.92674" lon="4.71266">
        <ele>187.2</ele>
        <time>1989-12-31T00:27:02Z</time>
      </trkpt>
      <trkpt lat="45.92572" lon="4.71207">
        <ele>185.2</ele>
        <time>1989-12-31T00:27:25Z</time>
      </trkpt>
      <trkpt lat="45.92368" lon="4.71113">
        <ele>184</ele>
        <time>1989-12-31T00:28:10Z</time>
      </trkpt>
      <trkpt lat="45.92247" lon="4.71057">
        <ele>181.8</ele>
        <time>1989-12-31T00:28:36Z</time>
      </trkpt>
      <trkpt lat="45.92142" lon="4.70992">
        <ele>182.6</ele>
        <time>1989-12-31T00:29:00Z</time>
      </trkpt>
      <trkpt lat="45.92082" lon="4.70956">
        <ele>184.8</ele>
        <time>1989-12-31T00:29:13Z</time>
      </trkpt>
      <trkpt lat="45.92067" lon="4.70857">
        <ele>185.4</ele>
        <time>1989-12-31T00:29:28Z</time>
      </trkpt>
      <trkpt lat="45.92073" lon="4.70738">
        <ele>189.2</ele>
        <time>1989-12-31T00:29:45Z</time>
      </trkpt>
      <trkpt lat="45.92139" lon="4.70587">
        <ele>190.8</ele>
        <time>1989-12-31T00:30:11Z</time>
      </trkpt>
      <trkpt lat="45.91986" lon="4.70594">
        <ele>194.6</ele>
        <time>1989-12-31T00:30:43Z</time>
      </trkpt>
      <trkpt lat="45.91974" lon="4.70454">
        <ele>201</ele>
        <time>1989-12-31T00:31:03Z</time>
      </trkpt>
      <trkpt lat="45.91963" lon="4.70402">
        <ele>208.4</ele>
        <time>1989-12-31T00:31:11Z</time>
      </trkpt>
      <trkpt lat="45.91979" lon="4.70307">
        <ele>220.2</ele>
        <time>1989-12-31T00:31:25Z</time>
      </trkpt>
      <trkpt lat="45.91852" lon="4.70309">
        <ele>215</ele>
        <time>1989-12-31T00:31:51Z</time>
      </trkpt>
      <trkpt lat="45.91784" lon="4.70258">
        <ele>215.6</ele>
        <time>1989-12-31T00:32:07Z</time>
      </trkpt>
      <trkpt lat="45.91723" lon="4.7019">
        <ele>220.6</ele>
        <time>1989-12-31T00:32:23Z</time>
      </trkpt>
      <trkpt lat="45.91662" lon="4.70069">
        <ele>232.2</ele>
        <time>1989-12-31T00:32:45Z</time>
      </trkpt>
      <trkpt lat="45.91546" lon="4.70079">
        <ele>230</ele>
        <time>1989-12-31T00:33:09Z</time>
      </trkpt>
      <trkpt lat="45.91505" lon="4.70082">
        <ele>226.2</ele>
        <time>1989-12-31T00:33:18Z</time>
      </trkpt>
      <trkpt lat="45.91412" lon="4.70102">
        <ele>223.2</ele>
        <time>1989-12-31T00:33:37Z</time>
      </trkpt>
      <trkpt lat="45.91419" lon="4.70012">
        <ele>230.8</ele>
        <time>1989-12-31T00:33:50Z</time>
      </trkpt>
      <trkpt lat="45.9141" lon="4.69956">
        <ele>235.8</ele>
        <time>1989-12-31T00:33:59Z</time>
      </trkpt>
      <trkpt lat="45.91411" lon="4.69895">
        <ele>242</ele>
        <time>1989-12-31T00:34:07Z</time>
      </trkpt>
      <trkpt lat="45.91454" lon="4.6981">
        <ele>249.6</ele>
        <time>1989-12-31T00:34:23Z</time>
      </trkpt>
      <trkpt lat="45.91479" lon="4.69699">
        <ele>256.4</ele>
        <time>1989-12-31T00:34:39Z</time>
      </trkpt>
      <trkpt lat="45.91493" lon="4.69635">
        <ele>260.2</ele>
        <time>1989-12-31T00:34:49Z</time>
      </trkpt>
      <trkpt lat="45.91502" lon="4.69586">
        <ele>264</ele>
        <time>1989-12-31T00:34:56Z</time>
      </trkpt>
      <trkpt lat="45.91575" lon="4.69501">
        <ele>269.4</ele>
        <time>1989-12-31T00:35:16Z</time>
      </trkpt>
      <trkpt lat="45.91575" lon="4.6942">
        <ele>275.4</ele>
        <time>1989-12-31T00:35:28Z</time>
      </trkpt>
      <trkpt lat="45.91571" lon="4.69285">
        <ele>284.2</ele>
        <time>1989-12-31T00:35:47Z</time>
      </trkpt>
      <trkpt lat="45.91546" lon="4.69216">
        <ele>290.4</ele>
        <time>1989-12-31T00:35:58Z</time>
      </trkpt>
      <trkpt lat="45.91425" lon="4.69206">
        <ele>288.2</ele>
        <time>1989-12-31T00:36:24Z</time>
      </trkpt>
      <trkpt lat="45.91301" lon="4.69196">
        <ele>287.6</ele>
        <time>1989-12-31T00:36:49Z</time>
      </trkpt>
      <trkpt lat="45.91207" lon="4.69164">
        <ele>293.4</ele>
        <time>1989-12-31T00:37:09Z</time>
      </trkpt>
      <trkpt lat="45.91163" lon="4.69149">
        <ele>291.4</ele>
        <time>1989-12-31T00:37:19Z</time>
      </trkpt>
      <trkpt lat="45.91113" lon="4.69168">
        <ele>287.4</ele>
        <time>1989-12-31T00:37:30Z</time>
      </trkpt>
      <trkpt lat="45.91047" lon="4.69138">
        <ele>290.2</ele>
        <time>1989-12-31T00:37:44Z</time>
      </trkpt>
      <trkpt lat="45.90976" lon="4.69106">
        <ele>289.6</ele>
        <time>1989-12-31T00:37:59Z</time>
      </trkpt>
      <trkpt lat="45.90989" lon="4.69023">
        <ele>297.2</ele>
        <time>1989-12-31T00:38:12Z</time>
      </trkpt>
      <trkpt lat="45.90929" lon="4.6902">
        <ele>294</ele>
        <time>1989-12-31T00:38:24Z</time>
      </trkpt>
      <trkpt lat="45.90868" lon="4.68965">
        <ele>295.4</ele>
        <time>1989-12-31T00:38:39Z</time>
      </trkpt>
      <trkpt lat="45.90811" lon="4.68932">
        <ele>295.4</ele>
        <time>1989-12-31T00:38:52Z</time>
      </trkpt>
      <trkpt lat="45.90732" lon="4.68969">
        <ele>294</ele>
        <time>1989-12-31T00:39:09Z</time>
      </trkpt>
      <trkpt lat="45.90662" lon="4.68938">
        <ele>297.4</ele>
        <time>1989-12-31T00:39:24Z</time>
      </trkpt>
      <trkpt lat="45.90566" lon="4.68869">
        <ele>300</ele>
        <time>1989-12-31T00:39:47Z</time>
      </trkpt>
      <trkpt lat="45.90543" lon="4.68814">
        <ele>304.4</ele>
        <time>1989-12-31T00:39:56Z</time>
      </trkpt>
      <trkpt lat="45.90422" lon="4.68714">
        <ele>312</ele>
        <time>1989-12-31T00:40:25Z</time>
      </trkpt>
      <trkpt lat="45.90352" lon="4.68691">
        <ele>309.4</ele>
        <time>1989-12-31T00:40:40Z</time>
      </trkpt>
      <trkpt lat="45.90276" lon="4.68696">
        <ele>306.6</ele>
        <time>1989-12-31T00:40:55Z</time>
      </trkpt>
      <trkpt lat="45.9017" lon="4.68646">
        <ele>306.4</ele>
        <time>1989-12-31T00:41:19Z</time>
      </trkpt>
      <trkpt lat="45.90091" lon="4.68614">
        <ele>306</ele>
        <time>1989-12-31T00:41:36Z</time>
      </trkpt>
      <trkpt lat="45.90012" lon="4.68527">
        <ele>307.2</ele>
        <time>1989-12-31T00:41:56Z</time>
      </trkpt>
      <trkpt lat="45.89952" lon="4.68462">
        <ele>309.2</ele>
        <time>1989-12-31T00:42:12Z</time>
      </trkpt>
      <trkpt lat="45.89843" lon="4.6833">
        <ele>318.2</ele>
        <time>1989-12-31T00:42:42Z</time>
      </trkpt>
      <trkpt lat="45.89952" lon="4.68328">
        <ele>328.4</ele>
        <time>1989-12-31T00:43:04Z</time>
      </trkpt>
      <trkpt lat="45.90012" lon="4.68298">
        <ele>334.6</ele>
        <time>1989-12-31T00:43:17Z</time>
      </trkpt>
      <trkpt lat="45.90073" lon="4.68312">
        <ele>334.2</ele>
        <time>1989-12-31T00:43:30Z</time>
      </trkpt>
      <trkpt lat="45.90125" lon="4.68331">
        <ele>334</ele>
        <time>1989-12-31T00:43:41Z</time>
      </trkpt>
      <trkpt lat="45.90201" lon="4.68255">
        <ele>337</ele>
        <time>1989-12-31T00:44:01Z</time>
      </trkpt>
      <trkpt lat="45.90271" lon="4.68168">
        <ele>350.2</ele>
        <time>1989-12-31T00:44:20Z</time>
      </trkpt>
      <trkpt lat="45.90315" lon="4.68079">
        <ele>359.4</ele>
        <time>1989-12-31T00:44:36Z</time>
      </trkpt>
      <trkpt lat="45.90323" lon="4.6799">
        <ele>365.4</ele>
        <time>1989-12-31T00:44:49Z</time>
      </trkpt>
      <trkpt lat="45.90328" lon="4.67821">
        <ele>372.2</ele>
        <time>1989-12-31T00:45:13Z</time>
      </trkpt>
      <trkpt lat="45.90343" lon="4.67717">
        <ele>371.6</ele>
        <time>1989-12-31T00:45:28Z</time>
      </trkpt>
      <trkpt lat="45.90552" lon="4.67793">
        <ele>365.2</ele>
        <time>1989-12-31T00:46:13Z</time>
      </trkpt>
      <trkpt lat="45.90693" lon="4.67799">
        <ele>368.2</ele>
        <time>1989-12-31T00:46:42Z</time>
      </trkpt>
      <trkpt lat="45.91049" lon="4.67948">
        <ele>374.6</ele>
        <time>1989-12-31T00:47:59Z</time>
      </trkpt>
      <trkpt lat="45.9128" lon="4.68047">
        <ele>384.8</ele>
        <time>1989-12-31T00:48:49Z</time>
      </trkpt>
      <trkpt lat="45.91375" lon="4.68086">
        <ele>386</ele>
        <time>1989-12-31T00:49:10Z</time>
      </trkpt>
      <trkpt lat="45.91451" lon="4.68083">
        <ele>384.2</ele>
        <time>1989-12-31T00:49:26Z</time>
      </trkpt>
      <trkpt lat="45.91575" lon="4.68161">
        <ele>378.2</ele>
        <time>1989-12-31T00:49:54Z</time>
      </trkpt>
      <trkpt lat="45.91581" lon="4.68125">
        <ele>377.6</ele>
        <time>1989-12-31T00:49:59Z</time>
      </trkpt>
      <trkpt lat="45.91568" lon="4.68048">
        <ele>376.8</ele>
        <time>1989-12-31T00:50:10Z</time>
      </trkpt>
      <trkpt lat="45.91574" lon="4.67967">
        <ele>378.8</ele>
        <time>1989-12-31T00:50:22Z</time>
      </trkpt>
      <trkpt lat="45.91596" lon="4.67956">
        <ele>374.2</ele>
        <time>1989-12-31T00:50:27Z</time>
      </trkpt>
      <trkpt lat="45.91614" lon="4.67908">
        <ele>375.4</ele>
        <time>1989-12-31T00:50:35Z</time>
      </trkpt>
      <trkpt lat="45.91607" lon="4.6781">
        <ele>374.8</ele>
        <time>1989-12-31T00:50:49Z</time>
      </trkpt>
      <trkpt lat="45.9161" lon="4.67741">
        <ele>372.2</ele>
        <time>1989-12-31T00:50:59Z</time>
      </trkpt>
      <trkpt lat="45.91622" lon="4.67643">
        <ele>365.4</ele>
        <time>1989-12-31T00:51:14Z</time>
      </trkpt>
      <trkpt lat="45.91709" lon="4.67631">
        <ele>359</ele>
        <time>1989-12-31T00:51:32Z</time>
      </trkpt>
      <trkpt lat="45.91729" lon="4.67563">
        <ele>353.4</ele>
        <time>1989-12-31T00:51:42Z</time>
      </trkpt>
      <trkpt lat="45.91753" lon="4.67447">
        <ele>342</ele>
        <time>1989-12-31T00:52:00Z</time>
      </trkpt>
      <trkpt lat="45.91791" lon="4.67394">
        <ele>339</ele>
        <time>1989-12-31T00:52:11Z</time>
      </trkpt>
      <trkpt lat="45.91803" lon="4.67366">
        <ele>339</ele>
        <time>1989-12-31T00:52:16Z</time>
      </trkpt>
      <trkpt lat="45.918" lon="4.67319">
        <ele>340.4</ele>
        <time>1989-12-31T00:52:22Z</time>
      </trkpt>
      <trkpt lat="45.91811" lon="4.67224">
        <ele>343.8</ele>
        <time>1989-12-31T00:52:36Z</time>
      </trkpt>
      <trkpt lat="45.91903" lon="4.67262">
        <ele>338.6</ele>
        <time>1989-12-31T00:52:56Z</time>
      </trkpt>
      <trkpt lat="45.92023" lon="4.67305">
        <ele>332.8</ele>
        <time>1989-12-31T00:53:22Z</time>
      </trkpt>
      <trkpt lat="45.92078" lon="4.6733">
        <ele>329.8</ele>
        <time>1989-12-31T00:53:34Z</time>
      </trkpt>
      <trkpt lat="45.9217" lon="4.6732">
        <ele>323</ele>
        <time>1989-12-31T00:53:53Z</time>
      </trkpt>
      <trkpt lat="45.9237" lon="4.67374">
        <ele>306.4</ele>
        <time>1989-12-31T00:54:35Z</time>
      </trkpt>
      <trkpt lat="45.92458" lon="4.67134">
        <ele>323.2</ele>
        <time>1989-12-31T00:55:14Z</time>
      </trkpt>
      <trkpt lat="45.92486" lon="4.67089">
        <ele>327.2</ele>
        <time>1989-12-31T00:55:23Z</time>
      </trkpt>
      <trkpt lat="45.9249" lon="4.67058">
        <ele>332.6</ele>
        <time>1989-12-31T00:55:28Z</time>
      </trkpt>
      <trkpt lat="45.92474" lon="4.66993">
        <ele>338.4</ele>
        <time>1989-12-31T00:55:38Z</time>
      </trkpt>
      <trkpt lat="45.92444" lon="4.66821">
        <ele>343</ele>
        <time>1989-12-31T00:56:03Z</time>
      </trkpt>
      <trkpt lat="45.92439" lon="4.66698">
        <ele>342.8</ele>
        <time>1989-12-31T00:56:21Z</time>
      </trkpt>
      <trkpt lat="45.92455" lon="4.66609">
        <ele>344.8</ele>
        <time>1989-12-31T00:56:34Z</time>
      </trkpt>
      <trkpt lat="45.92532" lon="4.66689">
        <ele>342.6</ele>
        <time>1989-12-31T00:56:54Z</time>
      </trkpt>
      <trkpt lat="45.92621" lon="4.66737">
        <ele>340.6</ele>
        <time>1989-12-31T00:57:14Z</time>
      </trkpt>
      <trkpt lat="45.92706" lon="4.6672">
        <ele>338.4</ele>
        <time>1989-12-31T00:57:31Z</time>
      </trkpt>
      <trkpt lat="45.92774" lon="4.66727">
        <ele>337.2</ele>
        <time>1989-12-31T00:57:46Z</time>
      </trkpt>
      <trkpt lat="45.92816" lon="4.66805">
        <ele>337.2</ele>
        <time>1989-12-31T00:58:00Z</time>
      </trkpt>
      <trkpt lat="45.92936" lon="4.66936">
        <ele>334.2</ele>
        <time>1989-12-31T00:58:31Z</time>
      </trkpt>
      <trkpt lat="45.92957" lon="4.66999">
        <ele>333.2</ele>
        <time>1989-12-31T00:58:41Z</time>
      </trkpt>
      <trkpt lat="45.93085" lon="4.66993">
        <ele>324</ele>
        <time>1989-12-31T00:59:08Z</time>
      </trkpt>
      <trkpt lat="45.93162" lon="4.67016">
        <ele>321.4</ele>
        <time>1989-12-31T00:59:24Z</time>
      </trkpt>
      <trkpt lat="45.9317" lon="4.67058">
        <ele>318.6</ele>
        <time>1989-12-31T00:59:30Z</time>
      </trkpt>
      <trkpt lat="45.93315" lon="4.67058">
        <ele>315.8</ele>
        <time>1989-12-31T01:00:01Z</time>
      </trkpt>
      <trkpt lat="45.93337" lon="4.66887">
        <ele>322.6</ele>
        <time>1989-12-31T01:00:26Z</time>
      </trkpt>
      <trkpt lat="45.93367" lon="4.66757">
        <ele>322.8</ele>
        <time>1989-12-31T01:00:45Z</time>
      </trkpt>
      <trkpt lat="45.93407" lon="4.66665">
        <ele>318.2</ele>
        <time>1989-12-31T01:01:01Z</time>
      </trkpt>
      <trkpt lat="45.93452" lon="4.66545">
        <ele>315.4</ele>
        <time>1989-12-31T01:01:21Z</time>
      </trkpt>
      <trkpt lat="45.93471" lon="4.66457">
        <ele>314.4</ele>
        <time>1989-12-31T01:01:34Z</time>
      </trkpt>
      <trkpt lat="45.93516" lon="4.66375">
        <ele>315.2</ele>
        <time>1989-12-31T01:01:49Z</time>
      </trkpt>
      <trkpt lat="45.93573" lon="4.66325">
        <ele>314</ele>
        <time>1989-12-31T01:02:03Z</time>
      </trkpt>
      <trkpt lat="45.93636" lon="4.66319">
        <ele>311.8</ele>
        <time>1989-12-31T01:02:16Z</time>
      </trkpt>
      <trkpt lat="45.93684" lon="4.66289">
        <ele>311</ele>
        <time>1989-12-31T01:02:27Z</time>
      </trkpt>
      <trkpt lat="45.93733" lon="4.66219">
        <ele>309.8</ele>
        <time>1989-12-31T01:02:41Z</time>
      </trkpt>
      <trkpt lat="45.93776" lon="4.66239">
        <ele>308.2</ele>
        <time>1989-12-31T01:02:51Z</time>
      </trkpt>
      <trkpt lat="45.93812" lon="4.66223">
        <ele>306.8</ele>
        <time>1989-12-31T01:02:58Z</time>
      </trkpt>
      <trkpt lat="45.93863" lon="4.66223">
        <ele>302.8</ele>
        <time>1989-12-31T01:03:09Z</time>
      </trkpt>
      <trkpt lat="45.939" lon="4.66228">
        <ele>301.6</ele>
        <time>1989-12-31T01:03:17Z</time>
      </trkpt>
      <trkpt lat="45.93994" lon="4.66224">
        <ele>294.4</ele>
        <time>1989-12-31T01:03:36Z</time>
      </trkpt>
      <trkpt lat="45.94094" lon="4.66205">
        <ele>288.4</ele>
        <time>1989-12-31T01:03:57Z</time>
      </trkpt>
      <trkpt lat="45.94144" lon="4.66181">
        <ele>287.6</ele>
        <time>1989-12-31T01:04:08Z</time>
      </trkpt>
      <trkpt lat="45.94172" lon="4.66198">
        <ele>283.8</ele>
        <time>1989-12-31T01:04:14Z</time>
      </trkpt>
      <trkpt lat="45.94218" lon="4.66166">
        <ele>282</ele>
        <time>1989-12-31T01:04:25Z</time>
      </trkpt>
      <trkpt lat="45.9428" lon="4.66188">
        <ele>275.6</ele>
        <time>1989-12-31T01:04:38Z</time>
      </trkpt>
      <trkpt lat="45.94334" lon="4.66152">
        <ele>268.2</ele>
        <time>1989-12-31T01:04:51Z</time>
      </trkpt>
      <trkpt lat="45.94385" lon="4.66172">
        <ele>266.8</ele>
        <time>1989-12-31T01:05:02Z</time>
      </trkpt>
      <trkpt lat="45.94482" lon="4.66236">
        <ele>262</ele>
        <time>1989-12-31T01:05:24Z</time>
      </trkpt>
      <trkpt lat="45.94672" lon="4.6632">
        <ele>256.4</ele>
        <time>1989-12-31T01:06:05Z</time>
      </trkpt>
      <trkpt lat="45.94757" lon="4.66345">
        <ele>253.8</ele>
        <time>1989-12-31T01:06:23Z</time>
      </trkpt>
      <trkpt lat="45.94803" lon="4.66356">
        <ele>253.8</ele>
        <time>1989-12-31T01:06:33Z</time>
      </trkpt>
      <trkpt lat="45.94843" lon="4.66359">
        <ele>250.2</ele>
        <time>1989-12-31T01:06:41Z</time>
      </trkpt>
      <trkpt lat="45.94832" lon="4.66328">
        <ele>250</ele>
        <time>1989-12-31T01:06:46Z</time>
      </trkpt>
      <trkpt lat="45.94838" lon="4.66279">
        <ele>246.8</ele>
        <time>1989-12-31T01:06:53Z</time>
      </trkpt>
      <trkpt lat="45.94859" lon="4.66246">
        <ele>246</ele>
        <time>1989-12-31T01:07:00Z</time>
      </trkpt>
      <trkpt lat="45.94893" lon="4.66216">
        <ele>244.8</ele>
        <time>1989-12-31T01:07:08Z</time>
      </trkpt>
      <trkpt lat="45.94901" lon="4.66186">
        <ele>244</ele>
        <time>1989-12-31T01:07:13Z</time>
      </trkpt>
      <trkpt lat="45.9493" lon="4.66175">
        <ele>240.6</ele>
        <time>1989-12-31T01:07:19Z</time>
      </trkpt>
      <trkpt lat="45.94988" lon="4.66136">
        <ele>241</ele>
        <time>1989-12-31T01:07:32Z</time>
      </trkpt>
      <trkpt lat="45.95011" lon="4.66125">
        <ele>244</ele>
        <time>1989-12-31T01:07:37Z</time>
      </trkpt>
      <trkpt lat="45.95008" lon="4.66075">
        <ele>246.8</ele>
        <time>1989-12-31T01:07:44Z</time>
      </trkpt>
      <trkpt lat="45.95025" lon="4.66054">
        <ele>249.8</ele>
        <time>1989-12-31T01:07:49Z</time>
      </trkpt>
      <trkpt lat="45.95003" lon="4.66042">
        <ele>249.6</ele>
        <time>1989-12-31T01:07:54Z</time>
      </trkpt>
      <trkpt lat="45.94929" lon="4.65863">
        <ele>247.4</ele>
        <time>1989-12-31T01:08:24Z</time>
      </trkpt>
      <trkpt lat="45.94836" lon="4.6562">
        <ele>259.6</ele>
        <time>1989-12-31T01:09:04Z</time>
      </trkpt>
      <trkpt lat="45.94761" lon="4.6549">
        <ele>267.2</ele>
        <time>1989-12-31T01:09:28Z</time>
      </trkpt>
      <trkpt lat="45.94726" lon="4.65446">
        <ele>268.8</ele>
        <time>1989-12-31T01:09:38Z</time>
      </trkpt>
      <trkpt lat="45.94697" lon="4.65381">
        <ele>272.2</ele>
        <time>1989-12-31T01:09:49Z</time>
      </trkpt>
      <trkpt lat="45.94629" lon="4.65209">
        <ele>279.8</ele>
        <time>1989-12-31T01:10:18Z</time>
      </trkpt>
      <trkpt lat="45.94568" lon="4.65101">
        <ele>284</ele>
        <time>1989-12-31T01:10:38Z</time>
      </trkpt>
      <trkpt lat="45.94725" lon="4.65013">
        <ele>272</ele>
        <time>1989-12-31T01:11:12Z</time>
      </trkpt>
      <trkpt lat="45.94783" lon="4.64951">
        <ele>267</ele>
        <time>1989-12-31T01:11:27Z</time>
      </trkpt>
      <trkpt lat="45.948" lon="4.65018">
        <ele>266.2</ele>
        <time>1989-12-31T01:11:38Z</time>
      </trkpt>
      <trkpt lat="45.94953" lon="4.6489">
        <ele>275</ele>
        <time>1989-12-31T01:12:14Z</time>
      </trkpt>
      <trkpt lat="45.95069" lon="4.6485">
        <ele>279</ele>
        <time>1989-12-31T01:12:39Z</time>
      </trkpt>
      <trkpt lat="45.95172" lon="4.64761">
        <ele>276.8</ele>
        <time>1989-12-31T01:13:04Z</time>
      </trkpt>
      <trkpt lat="45.95304" lon="4.64752">
        <ele>286.2</ele>
        <time>1989-12-31T01:13:32Z</time>
      </trkpt>
      <trkpt lat="45.95479" lon="4.64799">
        <ele>303.6</ele>
        <time>1989-12-31T01:14:09Z</time>
      </trkpt>
      <trkpt lat="45.95527" lon="4.64787">
        <ele>304.6</ele>
        <time>1989-12-31T01:14:19Z</time>
      </trkpt>
      <trkpt lat="45.95599" lon="4.64762">
        <ele>299.2</ele>
        <time>1989-12-31T01:14:34Z</time>
      </trkpt>
      <trkpt lat="45.95698" lon="4.64752">
        <ele>285.8</ele>
        <time>1989-12-31T01:14:55Z</time>
      </trkpt>
      <trkpt lat="45.95724" lon="4.64728">
        <ele>284.2</ele>
        <time>1989-12-31T01:15:01Z</time>
      </trkpt>
      <trkpt lat="45.95791" lon="4.64947">
        <ele>273.8</ele>
        <time>1989-12-31T01:15:35Z</time>
      </trkpt>
      <trkpt lat="45.95839" lon="4.64947">
        <ele>261.8</ele>
        <time>1989-12-31T01:15:46Z</time>
      </trkpt>
      <trkpt lat="45.95859" lon="4.64816">
        <ele>261.8</ele>
        <time>1989-12-31T01:16:05Z</time>
      </trkpt>
      <trkpt lat="45.95931" lon="4.64807">
        <ele>254.4</ele>
        <time>1989-12-31T01:16:20Z</time>
      </trkpt>
      <trkpt lat="45.96051" lon="4.64829">
        <ele>253.4</ele>
        <time>1989-12-31T01:16:45Z</time>
      </trkpt>
      <trkpt lat="45.96223" lon="4.64956">
        <ele>270.8</ele>
        <time>1989-12-31T01:17:25Z</time>
      </trkpt>
      <trkpt lat="45.96259" lon="4.6502">
        <ele>277.8</ele>
        <time>1989-12-31T01:17:37Z</time>
      </trkpt>
      <trkpt lat="45.96363" lon="4.64971">
        <ele>288.2</ele>
        <time>1989-12-31T01:18:00Z</time>
      </trkpt>
      <trkpt lat="45.96445" lon="4.64932">
        <ele>287.4</ele>
        <time>1989-12-31T01:18:18Z</time>
      </trkpt>
      <trkpt lat="45.96436" lon="4.64887">
        <ele>288.8</ele>
        <time>1989-12-31T01:18:24Z</time>
      </trkpt>
      <trkpt lat="45.9643" lon="4.64823">
        <ele>289.2</ele>
        <time>1989-12-31T01:18:34Z</time>
      </trkpt>
      <trkpt lat="45.96433" lon="4.64773">
        <ele>289</ele>
        <time>1989-12-31T01:18:41Z</time>
      </trkpt>
      <trkpt lat="45.96637" lon="4.64764">
        <ele>285.4</ele>
        <time>1989-12-31T01:19:23Z</time>
      </trkpt>
      <trkpt lat="45.96694" lon="4.6477">
        <ele>281.8</ele>
        <time>1989-12-31T01:19:35Z</time>
      </trkpt>
      <trkpt lat="45.96801" lon="4.64788">
        <ele>272.2</ele>
        <time>1989-12-31T01:19:57Z</time>
      </trkpt>
      <trkpt lat="45.96943" lon="4.64731">
        <ele>269.4</ele>
        <time>1989-12-31T01:20:28Z</time>
      </trkpt>
      <trkpt lat="45.97025" lon="4.64663">
        <ele>279.8</ele>
        <time>1989-12-31T01:20:48Z</time>
      </trkpt>
      <trkpt lat="45.97119" lon="4.64658">
        <ele>286</ele>
        <time>1989-12-31T01:21:07Z</time>
      </trkpt>
      <trkpt lat="45.97336" lon="4.64736">
        <ele>288.8</ele>
        <time>1989-12-31T01:21:54Z</time>
      </trkpt>
      <trkpt lat="45.97351" lon="4.64087">
        <ele>309.8</ele>
        <time>1989-12-31T01:23:27Z</time>
      </trkpt>
      <trkpt lat="45.97647" lon="4.64134">
        <ele>306.2</ele>
        <time>1989-12-31T01:24:29Z</time>
      </trkpt>
      <trkpt lat="45.97713" lon="4.64126">
        <ele>299.6</ele>
        <time>1989-12-31T01:24:43Z</time>
      </trkpt>
      <trkpt lat="45.97797" lon="4.64029">
        <ele>291.4</ele>
        <time>1989-12-31T01:25:05Z</time>
      </trkpt>
      <trkpt lat="45.97875" lon="4.63992">
        <ele>291.4</ele>
        <time>1989-12-31T01:25:22Z</time>
      </trkpt>
      <trkpt lat="45.98014" lon="4.63992">
        <ele>273.2</ele>
        <time>1989-12-31T01:25:51Z</time>
      </trkpt>
      <trkpt lat="45.98068" lon="4.63872">
        <ele>270.2</ele>
        <time>1989-12-31T01:26:12Z</time>
      </trkpt>
      <trkpt lat="45.98133" lon="4.63843">
        <ele>263.4</ele>
        <time>1989-12-31T01:26:26Z</time>
      </trkpt>
      <trkpt lat="45.98189" lon="4.63865">
        <ele>266.4</ele>
        <time>1989-12-31T01:26:38Z</time>
      </trkpt>
      <trkpt lat="45.98225" lon="4.6391">
        <ele>269.4</ele>
        <time>1989-12-31T01:26:48Z</time>
      </trkpt>
      <trkpt lat="45.9824" lon="4.63893">
        <ele>270</ele>
        <time>1989-12-31T01:26:52Z</time>
      </trkpt>
      <trkpt lat="45.98271" lon="4.63896">
        <ele>278.6</ele>
        <time>1989-12-31T01:26:58Z</time>
      </trkpt>
      <trkpt lat="45.98304" lon="4.6388">
        <ele>282</ele>
        <time>1989-12-31T01:27:05Z</time>
      </trkpt>
      <trkpt lat="45.98318" lon="4.63897">
        <ele>284</ele>
        <time>1989-12-31T01:27:09Z</time>
      </trkpt>
      <trkpt lat="45.98361" lon="4.63883">
        <ele>293.8</ele>
        <time>1989-12-31T01:27:18Z</time>
      </trkpt>
      <trkpt lat="45.98409" lon="4.63891">
        <ele>298</ele>
        <time>1989-12-31T01:27:28Z</time>
      </trkpt>
      <trkpt lat="45.98411" lon="4.64017">
        <ele>295.8</ele>
        <time>1989-12-31T01:27:47Z</time>
      </trkpt>
      <trkpt lat="45.98477" lon="4.64015">
        <ele>300.6</ele>
        <time>1989-12-31T01:28:00Z</time>
      </trkpt>
      <trkpt lat="45.98567" lon="4.63972">
        <ele>308</ele>
        <time>1989-12-31T01:28:20Z</time>
      </trkpt>
      <trkpt lat="45.98662" lon="4.63982">
        <ele>315</ele>
        <time>1989-12-31T01:28:40Z</time>
      </trkpt>
      <trkpt lat="45.98725" lon="4.63987">
        <ele>321.2</ele>
        <time>1989-12-31T01:28:53Z</time>
      </trkpt>
      <trkpt lat="45.98776" lon="4.6402">
        <ele>319.8</ele>
        <time>1989-12-31T01:29:05Z</time>
      </trkpt>
      <trkpt lat="45.98817" lon="4.64048">
        <ele>319.4</ele>
        <time>1989-12-31T01:29:14Z</time>
      </trkpt>
      <trkpt lat="45.98837" lon="4.64033">
        <ele>324.6</ele>
        <time>1989-12-31T01:29:19Z</time>
      </trkpt>
      <trkpt lat="45.98895" lon="4.63882">
        <ele>344</ele>
        <time>1989-12-31T01:29:44Z</time>
      </trkpt>
      <trkpt lat="45.98941" lon="4.63916">
        <ele>347.8</ele>
        <time>1989-12-31T01:29:54Z</time>
      </trkpt>
      <trkpt lat="45.99044" lon="4.63968">
        <ele>345.4</ele>
        <time>1989-12-31T01:30:17Z</time>
      </trkpt>
      <trkpt lat="45.9909" lon="4.63979">
        <ele>346.6</ele>
        <time>1989-12-31T01:30:27Z</time>
      </trkpt>
      <trkpt lat="45.99138" lon="4.63968">
        <ele>347.8</ele>
        <time>1989-12-31T01:30:37Z</time>
      </trkpt>
      <trkpt lat="45.99209" lon="4.63887">
        <ele>356.4</ele>
        <time>1989-12-31T01:30:55Z</time>
      </trkpt>
      <trkpt lat="45.99285" lon="4.63831">
        <ele>361</ele>
        <time>1989-12-31T01:31:13Z</time>
      </trkpt>
      <trkpt lat="45.9931" lon="4.63784">
        <ele>362</ele>
        <time>1989-12-31T01:31:22Z</time>
      </trkpt>
      <trkpt lat="45.99323" lon="4.63744">
        <ele>364.4</ele>
        <time>1989-12-31T01:31:28Z</time>
      </trkpt>
      <trkpt lat="45.99357" lon="4.63671">
        <ele>363.4</ele>
        <time>1989-12-31T01:31:41Z</time>
      </trkpt>
      <trkpt lat="45.99413" lon="4.63719">
        <ele>360.2</ele>
        <time>1989-12-31T01:31:54Z</time>
      </trkpt>
      <trkpt lat="45.9945" lon="4.63772">
        <ele>355.2</ele>
        <time>1989-12-31T01:32:05Z</time>
      </trkpt>
      <trkpt lat="45.99524" lon="4.63836">
        <ele>346.8</ele>
        <time>1989-12-31T01:32:23Z</time>
      </trkpt>
      <trkpt lat="45.99558" lon="4.63896">
        <ele>341.6</ele>
        <time>1989-12-31T01:32:34Z</time>
      </trkpt>
      <trkpt lat="45.99569" lon="4.63955">
        <ele>336.6</ele>
        <time>1989-12-31T01:32:43Z</time>
      </trkpt>
      <trkpt lat="45.99616" lon="4.64016">
        <ele>322</ele>
        <time>1989-12-31T01:32:56Z</time>
      </trkpt>
      <trkpt lat="45.99668" lon="4.64051">
        <ele>312.6</ele>
        <time>1989-12-31T01:33:08Z</time>
      </trkpt>
      <trkpt lat="45.99708" lon="4.64056">
        <ele>311.4</ele>
        <time>1989-12-31T01:33:16Z</time>
      </trkpt>
      <trkpt lat="45.99709" lon="4.64013">
        <ele>311.8</ele>
        <time>1989-12-31T01:33:23Z</time>
      </trkpt>
      <trkpt lat="45.99776" lon="4.64055">
        <ele>306</ele>
        <time>1989-12-31T01:33:38Z</time>
      </trkpt>
      <trkpt lat="45.99865" lon="4.64146">
        <ele>299.2</ele>
        <time>1989-12-31T01:34:00Z</time>
      </trkpt>
      <trkpt lat="45.9991" lon="4.64213">
        <ele>297.4</ele>
        <time>1989-12-31T01:34:14Z</time>
      </trkpt>
      <trkpt lat="45.99969" lon="4.64252">
        <ele>292.4</ele>
        <time>1989-12-31T01:34:27Z</time>
      </trkpt>
      <trkpt lat="46.00066" lon="4.64291">
        <ele>288.2</ele>
        <time>1989-12-31T01:34:48Z</time>
      </trkpt>
      <trkpt lat="46.0017" lon="4.64377">
        <ele>278.6</ele>
        <time>1989-12-31T01:35:13Z</time>
      </trkpt>
      <trkpt lat="46.00172" lon="4.6449">
        <ele>276.8</ele>
        <time>1989-12-31T01:35:29Z</time>
      </trkpt>
      <trkpt lat="46.00183" lon="4.64511">
        <ele>275.4</ele>
        <time>1989-12-31T01:35:33Z</time>
      </trkpt>
      <trkpt lat="46.00181" lon="4.64584">
        <ele>275.4</ele>
        <time>1989-12-31T01:35:44Z</time>
      </trkpt>
      <trkpt lat="46.00169" lon="4.64595">
        <ele>275.6</ele>
        <time>1989-12-31T01:35:47Z</time>
      </trkpt>
      <trkpt lat="46.00181" lon="4.64877">
        <ele>259</ele>
        <time>1989-12-31T01:36:27Z</time>
      </trkpt>
      <trkpt lat="46.00249" lon="4.64901">
        <ele>256</ele>
        <time>1989-12-31T01:36:42Z</time>
      </trkpt>
      <trkpt lat="46.00315" lon="4.64922">
        <ele>252.4</ele>
        <time>1989-12-31T01:36:56Z</time>
      </trkpt>
      <trkpt lat="46.00291" lon="4.65047">
        <ele>251</ele>
        <time>1989-12-31T01:37:15Z</time>
      </trkpt>
      <trkpt lat="46.00322" lon="4.65204">
        <ele>250.4</ele>
        <time>1989-12-31T01:37:38Z</time>
      </trkpt>
      <trkpt lat="46.00291" lon="4.65543">
        <ele>248.8</ele>
        <time>1989-12-31T01:38:27Z</time>
      </trkpt>
      <trkpt lat="46.0025" lon="4.65644">
        <ele>245</ele>
        <time>1989-12-31T01:38:44Z</time>
      </trkpt>
      <trkpt lat="46.00225" lon="4.6574">
        <ele>243.8</ele>
        <time>1989-12-31T01:38:59Z</time>
      </trkpt>
      <trkpt lat="46.00223" lon="4.66023">
        <ele>240.6</ele>
        <time>1989-12-31T01:39:40Z</time>
      </trkpt>
      <trkpt lat="46.0023" lon="4.66086">
        <ele>242</ele>
        <time>1989-12-31T01:39:49Z</time>
      </trkpt>
      <trkpt lat="46.00181" lon="4.66414">
        <ele>238.2</ele>
        <time>1989-12-31T01:40:37Z</time>
      </trkpt>
      <trkpt lat="46.00156" lon="4.66633">
        <ele>233.6</ele>
        <time>1989-12-31T01:41:09Z</time>
      </trkpt>
      <trkpt lat="46.00165" lon="4.6671">
        <ele>234</ele>
        <time>1989-12-31T01:41:21Z</time>
      </trkpt>
      <trkpt lat="46.00209" lon="4.66723">
        <ele>241</ele>
        <time>1989-12-31T01:41:30Z</time>
      </trkpt>
      <trkpt lat="46.00326" lon="4.66725">
        <ele>251</ele>
        <time>1989-12-31T01:41:54Z</time>
      </trkpt>
      <trkpt lat="46.00402" lon="4.66728">
        <ele>257.4</ele>
        <time>1989-12-31T01:42:10Z</time>
      </trkpt>
      <trkpt lat="46.00532" lon="4.6688">
        <ele>264.4</ele>
        <time>1989-12-31T01:42:45Z</time>
      </trkpt>
      <trkpt lat="46.00611" lon="4.67103">
        <ele>263.2</ele>
        <time>1989-12-31T01:43:21Z</time>
      </trkpt>
      <trkpt lat="46.00648" lon="4.67313">
        <ele>262</ele>
        <time>1989-12-31T01:43:52Z</time>
      </trkpt>
      <trkpt lat="46.00677" lon="4.67496">
        <ele>258.4</ele>
        <time>1989-12-31T01:44:19Z</time>
      </trkpt>
      <trkpt lat="46.00786" lon="4.67481">
        <ele>258.8</ele>
        <time>1989-12-31T01:44:42Z</time>
      </trkpt>
      <trkpt lat="46.00826" lon="4.67581">
        <ele>256.4</ele>
        <time>1989-12-31T01:44:59Z</time>
      </trkpt>
      <trkpt lat="46.00898" lon="4.67525">
        <ele>256</ele>
        <time>1989-12-31T01:45:16Z</time>
      </trkpt>
      <trkpt lat="46.00943" lon="4.67594">
        <ele>254</ele>
        <time>1989-12-31T01:45:29Z</time>
      </trkpt>
      <trkpt lat="46.00946" lon="4.67777">
        <ele>249.8</ele>
        <time>1989-12-31T01:45:56Z</time>
      </trkpt>
      <trkpt lat="46.00924" lon="4.68008">
        <ele>246.8</ele>
        <time>1989-12-31T01:46:29Z</time>
      </trkpt>
      <trkpt lat="46.00893" lon="4.68225">
        <ele>246.2</ele>
        <time>1989-12-31T01:47:01Z</time>
      </trkpt>
      <trkpt lat="46.00854" lon="4.68639">
        <ele>238.2</ele>
        <time>1989-12-31T01:48:01Z</time>
      </trkpt>
      <trkpt lat="46.00836" lon="4.68924">
        <ele>229.8</ele>
        <time>1989-12-31T01:48:43Z</time>
      </trkpt>
      <trkpt lat="46.00932" lon="4.6903">
        <ele>227</ele>
        <time>1989-12-31T01:49:08Z</time>
      </trkpt>
      <trkpt lat="46.00857" lon="4.69155">
        <ele>225.8</ele>
        <time>1989-12-31T01:49:32Z</time>
      </trkpt>
      <trkpt lat="46.00826" lon="4.69261">
        <ele>227.4</ele>
        <time>1989-12-31T01:49:48Z</time>
      </trkpt>
      <trkpt lat="46.00818" lon="4.69275">
        <ele>227.8</ele>
        <time>1989-12-31T01:49:51Z</time>
      </trkpt>
      <trkpt lat="46.00821" lon="4.69349">
        <ele>227.6</ele>
        <time>1989-12-31T01:50:01Z</time>
      </trkpt>
      <trkpt lat="46.0082" lon="4.69431">
        <ele>228</ele>
        <time>1989-12-31T01:50:13Z</time>
      </trkpt>
      <trkpt lat="46.00728" lon="4.6965">
        <ele>233.6</ele>
        <time>1989-12-31T01:50:50Z</time>
      </trkpt>
      <trkpt lat="46.00732" lon="4.69947">
        <ele>225</ele>
        <time>1989-12-31T01:51:33Z</time>
      </trkpt>
      <trkpt lat="46.00742" lon="4.70138">
        <ele>221</ele>
        <time>1989-12-31T01:52:01Z</time>
      </trkpt>
      <trkpt lat="46.00593" lon="4.70139">
        <ele>222.6</ele>
        <time>1989-12-31T01:52:32Z</time>
      </trkpt>
      <trkpt lat="46.00565" lon="4.70132">
        <ele>222</ele>
        <time>1989-12-31T01:52:37Z</time>
      </trkpt>
      <trkpt lat="46.0052" lon="4.70092">
        <ele>223</ele>
        <time>1989-12-31T01:52:48Z</time>
      </trkpt>
      <trkpt lat="46.00508" lon="4.70091">
        <ele>223.4</ele>
        <time>1989-12-31T01:52:51Z</time>
      </trkpt>
      <trkpt lat="46.00496" lon="4.70104">
        <ele>221.8</ele>
        <time>1989-12-31T01:52:54Z</time>
      </trkpt>
      <trkpt lat="46.0046" lon="4.70271">
        <ele>209.4</ele>
        <time>1989-12-31T01:53:19Z</time>
      </trkpt>
      <trkpt lat="46.00381" lon="4.70315">
        <ele>205</ele>
        <time>1989-12-31T01:53:37Z</time>
      </trkpt>
      <trkpt lat="46.003" lon="4.70299">
        <ele>203.2</ele>
        <time>1989-12-31T01:53:54Z</time>
      </trkpt>
      <trkpt lat="46.00304" lon="4.7052">
        <ele>197.4</ele>
        <time>1989-12-31T01:54:26Z</time>
      </trkpt>
      <trkpt lat="46.00166" lon="4.70532">
        <ele>198</ele>
        <time>1989-12-31T01:54:54Z</time>
      </trkpt>
      <trkpt lat="46.0015" lon="4.7051">
        <ele>198.4</ele>
        <time>1989-12-31T01:54:59Z</time>
      </trkpt>
      <trkpt lat="46.00125" lon="4.7052">
        <ele>197.8</ele>
        <time>1989-12-31T01:55:04Z</time>
      </trkpt>
      <trkpt lat="46.00128" lon="4.70575">
        <ele>197.6</ele>
        <time>1989-12-31T01:55:12Z</time>
      </trkpt>
      <trkpt lat="46.00085" lon="4.70588">
        <ele>198</ele>
        <time>1989-12-31T01:55:21Z</time>
      </trkpt>
      <trkpt lat="45.99876" lon="4.70647">
        <ele>200.6</ele>
        <time>1989-12-31T01:56:06Z</time>
      </trkpt>
      <trkpt lat="45.99784" lon="4.71137">
        <ele>198.2</ele>
        <time>1989-12-31T01:57:19Z</time>
      </trkpt>
      <trkpt lat="45.99518" lon="4.71635">
        <ele>199.2</ele>
        <time>1989-12-31T01:58:49Z</time>
      </trkpt>
      <trkpt lat="45.99533" lon="4.72059">
        <ele>194.8</ele>
        <time>1989-12-31T01:59:51Z</time>
      </trkpt>
      <trkpt lat="45.99521" lon="4.72083">
        <ele>194.8</ele>
        <time>1989-12-31T01:59:55Z</time>
      </trkpt>
      <trkpt lat="45.99378" lon="4.72127">
        <ele>195.4</ele>
        <time>1989-12-31T02:00:25Z</time>
      </trkpt>
      <trkpt lat="45.99315" lon="4.72143">
        <ele>194.6</ele>
        <time>1989-12-31T02:00:38Z</time>
      </trkpt>
      <trkpt lat="45.99132" lon="4.72145">
        <ele>189.8</ele>
        <time>1989-12-31T02:01:17Z</time>
      </trkpt>
      <trkpt lat="45.99096" lon="4.72158">
        <ele>189</ele>
        <time>1989-12-31T02:01:24Z</time>
      </trkpt>
      <trkpt lat="45.99052" lon="4.7217">
        <ele>186.6</ele>
        <time>1989-12-31T02:01:34Z</time>
      </trkpt>
      <trkpt lat="45.98942" lon="4.72162">
        <ele>183.6</ele>
        <time>1989-12-31T02:01:56Z</time>
      </trkpt>
      <trkpt lat="45.98857" lon="4.72159">
        <ele>182.4</ele>
        <time>1989-12-31T02:02:14Z</time>
      </trkpt>
      <trkpt lat="45.98708" lon="4.72123">
        <ele>186.2</ele>
        <time>1989-12-31T02:02:45Z</time>
      </trkpt>
      <trkpt lat="45.98697" lon="4.72256">
        <ele>187.2</ele>
        <time>1989-12-31T02:03:05Z</time>
      </trkpt>
      <trkpt lat="45.98652" lon="4.72277">
        <ele>189.8</ele>
        <time>1989-12-31T02:03:15Z</time>
      </trkpt>
      <trkpt lat="45.98597" lon="4.72289">
        <ele>190.8</ele>
        <time>1989-12-31T02:03:26Z</time>
      </trkpt>
      <trkpt lat="45.98581" lon="4.72294">
        <ele>192.6</ele>
        <time>1989-12-31T02:03:30Z</time>
      </trkpt>
      <trkpt lat="45.98533" lon="4.72187">
        <ele>192.4</ele>
        <time>1989-12-31T02:03:48Z</time>
      </trkpt>
      <trkpt lat="45.98453" lon="4.72167">
        <ele>191.8</ele>
        <time>1989-12-31T02:04:05Z</time>
      </trkpt>
      <trkpt lat="45.98423" lon="4.72177">
        <ele>191</ele>
        <time>1989-12-31T02:04:11Z</time>
      </trkpt>
      <trkpt lat="45.98369" lon="4.72324">
        <ele>192.2</ele>
        <time>1989-12-31T02:04:35Z</time>
      </trkpt>
      <trkpt lat="45.98334" lon="4.72415">
        <ele>192</ele>
        <time>1989-12-31T02:04:50Z</time>
      </trkpt>
      <trkpt lat="45.98271" lon="4.72577">
        <ele>188.2</ele>
        <time>1989-12-31T02:05:17Z</time>
      </trkpt>
      <trkpt lat="45.9822" lon="4.72565">
        <ele>187.8</ele>
        <time>1989-12-31T02:05:28Z</time>
      </trkpt>
      <trkpt lat="45.98143" lon="4.72601">
        <ele>187.8</ele>
        <time>1989-12-31T02:05:44Z</time>
      </trkpt>
      <trkpt lat="45.98116" lon="4.72586">
        <ele>187.4</ele>
        <time>1989-12-31T02:05:50Z</time>
      </trkpt>
      <trkpt lat="45.98109" lon="4.72537">
        <ele>187.8</ele>
        <time>1989-12-31T02:05:58Z</time>
      </trkpt>
      <trkpt lat="45.98054" lon="4.72513">
        <ele>187.4</ele>
        <time>1989-12-31T02:06:10Z</time>
      </trkpt>
      <trkpt lat="45.9803" lon="4.72515">
        <ele>187.2</ele>
        <time>1989-12-31T02:06:15Z</time>
      </trkpt>
      <trkpt lat="45.98028" lon="4.72561">
        <ele>187.2</ele>
        <time>1989-12-31T02:06:21Z</time>
      </trkpt>
    </trkseg>
  </trk>
</gpx>